Time;durP1;ratioP1;P1;durP2;ratioP2;P2;SDS_P1;SDS_P2;PMS_P1;PMS_P2;Temp;Humidity;BMP_temperature;BMP_pressure;BME280_temperature;BME280_humidity;BME280_pressure;Samples;Min_cycle;Max_cycle;Signal;HPM_P1;HPM_P2
2023/03/01 00:00:21;;;;;;;130.13;54.90;;;;;;;-0.80;92.70;102213.44;5085791;56;1142820;-69
2023/03/01 00:05:28;;;;;;;126.72;51.48;;;;;;;-0.80;93.13;102204.78;5105414;56;1142973;-68
2023/03/01 00:10:34;;;;;;;103.80;43.23;;;;;;;-0.79;93.23;102198.72;5085590;56;1142895;-69
2023/03/01 00:15:43;;;;;;;145.00;51.40;;;;;;;-0.87;92.32;102196.13;5085870;56;1142805;-69
2023/03/01 00:20:56;;;;;;;170.80;61.03;;;;;;;-0.98;92.95;102190.55;5105856;56;1149498;-68
2023/03/01 00:26:02;;;;;;;200.67;80.00;;;;;;;-1.02;93.17;102192.72;5030035;56;1142935;-69
2023/03/01 00:31:12;;;;;;;163.00;77.03;;;;;;;-1.09;93.16;102187.57;5084017;56;1142809;-72
2023/03/01 00:36:18;;;;;;;130.27;55.43;;;;;;;-1.11;93.50;102188.00;5159702;55;1142914;-65
2023/03/01 00:41:26;;;;;;;170.30;74.90;;;;;;;-1.13;94.07;102187.58;5199511;55;1142928;-71
2023/03/01 00:46:32;;;;;;;144.67;62.03;;;;;;;-1.22;93.48;102183.72;5129782;56;1143106;-69
2023/03/01 00:51:41;;;;;;;104.63;46.80;;;;;;;-1.38;93.96;102179.42;5105775;55;1143030;-66
2023/03/01 00:56:45;;;;;;;99.47;45.77;;;;;;;-1.37;94.94;102184.58;5121328;56;1143123;-69
2023/03/01 01:01:55;;;;;;;101.62;44.60;;;;;;;-1.29;95.70;102180.26;5090210;56;1140892;-72
2023/03/01 01:07:00;;;;;;;106.10;44.85;;;;;;;-1.20;95.81;102186.71;5080533;55;1143053;-66
2023/03/01 01:12:08;;;;;;;180.97;64.07;;;;;;;-1.15;95.96;102181.08;5139842;55;1143057;-68
2023/03/01 01:17:14;;;;;;;127.77;50.43;;;;;;;-1.11;95.64;102175.02;5121819;55;1142951;-72
2023/03/01 01:22:20;;;;;;;146.60;56.63;;;;;;;-1.15;95.28;102169.84;5100570;55;1143103;-67
2023/03/01 01:27:26;;;;;;;148.77;52.90;;;;;;;-1.17;94.88;102172.86;5118804;56;1142901;-66
2023/03/01 01:32:32;;;;;;;137.30;57.47;;;;;;;-1.20;94.93;102169.84;5106339;56;1143002;-69
2023/03/01 01:37:38;;;;;;;100.93;46.33;;;;;;;-1.21;94.80;102162.05;5120163;55;1143004;-65
2023/03/01 01:42:44;;;;;;;205.53;98.90;;;;;;;-1.22;94.80;102164.25;5139638;56;1179937;-70
2023/03/01 01:47:50;;;;;;;110.85;52.30;;;;;;;-1.32;94.38;102162.09;5120258;56;1142926;-64
2023/03/01 01:52:56;;;;;;;90.15;35.35;;;;;;;-1.39;94.28;102157.80;5120212;56;1142841;-64
2023/03/01 01:58:06;;;;;;;75.35;32.85;;;;;;;-1.59;94.57;102134.48;5140622;56;1140807;-70
2023/03/01 02:03:17;;;;;;;76.67;30.93;;;;;;;-1.59;95.38;102120.21;5120387;56;1141007;-67
2023/03/01 02:08:26;;;;;;;100.07;39.43;;;;;;;-1.77;94.91;102118.94;5084797;56;1140816;-67
2023/03/01 02:13:36;;;;;;;81.77;34.17;;;;;;;-2.05;95.01;102115.94;5119868;56;1142956;-68
2023/03/01 02:18:44;;;;;;;79.00;32.08;;;;;;;-2.15;96.49;102107.31;5178451;55;1140907;-66
2023/03/01 02:23:50;;;;;;;83.40;33.80;;;;;;;-2.21;97.22;102095.64;5198184;55;1140865;-70
2023/03/01 02:28:56;;;;;;;80.80;34.20;;;;;;;-2.20;97.77;102087.87;5198203;55;1140848;-70
2023/03/01 02:34:04;;;;;;;230.60;76.67;;;;;;;-2.17;98.44;102089.60;5194330;55;1141024;-69
2023/03/01 02:39:14;;;;;;;87.30;34.77;;;;;;;-1.95;98.92;102074.88;5098512;56;1142969;-68
2023/03/01 02:44:20;;;;;;;104.70;39.17;;;;;;;-1.95;98.92;102074.88;5133018;55;1140942;-71
2023/03/01 02:49:34;;;;;;;88.93;41.60;;;;;;;-1.91;98.84;102080.50;5141358;55;1143161;-70
2023/03/01 02:54:48;;;;;;;84.87;38.33;;;;;;;-1.94;98.64;102076.17;5136321;55;1140911;-67
2023/03/01 02:59:56;;;;;;;81.73;36.60;;;;;;;-1.91;98.76;102074.88;5129722;55;1140867;-71
2023/03/01 03:05:14;;;;;;;91.50;39.10;;;;;;;-1.83;99.10;102080.90;5112112;55;1147266;-68
2023/03/01 03:10:24;;;;;;;107.30;44.53;;;;;;;-1.81;98.73;102079.17;5121800;55;1140923;-66
2023/03/01 03:15:31;;;;;;;80.60;34.93;;;;;;;-1.81;98.31;102081.77;5202184;55;1143110;-69
2023/03/01 03:20:37;;;;;;;80.50;34.33;;;;;;;-1.81;97.79;102086.09;5148735;55;1141040;-71
2023/03/01 03:25:43;;;;;;;74.77;34.30;;;;;;;-1.89;97.17;102084.82;5122783;55;1141004;-66
2023/03/01 03:30:50;;;;;;;83.10;34.20;;;;;;;-1.88;97.63;102068.40;5132788;55;1140822;-66
2023/03/01 03:35:55;;;;;;;78.42;32.80;;;;;;;-1.91;97.92;102068.83;5116182;55;1140832;-69
2023/03/01 03:41:07;;;;;;;84.28;35.43;;;;;;;-2.00;97.31;102077.93;5081400;56;1140905;-68
2023/03/01 03:46:14;;;;;;;111.03;42.85;;;;;;;-2.19;97.47;102072.75;5032812;57;1140942;-66
2023/03/01 03:51:22;;;;;;;97.60;35.30;;;;;;;-2.19;97.87;102079.23;5058280;56;1142883;-69
2023/03/01 03:56:29;;;;;;;85.07;36.53;;;;;;;-2.29;98.30;102081.37;5035856;56;1140731;-68
2023/03/01 04:01:35;;;;;;;92.40;35.43;;;;;;;-2.39;98.52;102082.67;5039033;56;1141072;-68
2023/03/01 04:06:41;;;;;;;102.57;39.53;;;;;;;-2.45;99.23;102080.96;5104981;56;1140738;-67
2023/03/01 04:11:48;;;;;;;93.77;38.07;;;;;;;-2.43;99.89;102078.34;5101264;56;1142925;-69
2023/03/01 04:16:54;;;;;;;88.27;35.03;;;;;;;-2.37;100.00;102078.36;5157900;55;1140803;-66
2023/03/01 04:21:59;;;;;;;86.20;37.08;;;;;;;-2.28;100.00;102075.76;5079954;56;1142853;-65
2023/03/01 04:27:06;;;;;;;82.92;36.33;;;;;;;-2.20;100.00;102074.91;5032902;56;1143303;-68
2023/03/01 04:32:13;;;;;;;93.63;36.47;;;;;;;-2.11;100.00;102070.14;5032625;56;1142951;-68
2023/03/01 04:37:19;;;;;;;97.60;37.80;;;;;;;-2.35;98.03;102055.48;5034114;56;1143038;-67
2023/03/01 04:42:25;;;;;;;182.27;64.30;;;;;;;-2.63;98.42;102058.48;5065249;56;1140825;-69
2023/03/01 04:47:30;;;;;;;312.70;82.90;;;;;;;-2.83;99.17;102056.29;5045106;56;1142865;-65
2023/03/01 04:52:36;;;;;;;150.03;47.03;;;;;;;-2.91;100.00;102052.41;5045362;56;1142865;-69
2023/03/01 04:57:42;;;;;;;111.43;39.60;;;;;;;-3.00;100.00;102050.20;5064630;56;1145001;-64
2023/03/01 05:02:59;;;;;;;97.65;37.33;;;;;;;-3.02;100.00;102053.22;5060370;56;1145208;-67
2023/03/01 05:08:08;;;;;;;90.55;38.17;;;;;;;-2.87;100.00;102061.02;5057034;56;1142799;-67
2023/03/01 05:13:20;;;;;;;97.40;39.30;;;;;;;-2.67;100.00;102061.93;5089962;56;1143041;-70
2023/03/01 05:18:25;;;;;;;104.33;37.93;;;;;;;-2.57;100.00;102060.20;5153668;55;1143074;-70
2023/03/01 05:23:33;;;;;;;129.05;44.35;;;;;;;-2.72;100.00;102041.62;5217480;55;1145094;-66
2023/03/01 05:28:39;;;;;;;105.20;40.63;;;;;;;-2.85;100.00;102048.95;5217702;55;1145093;-67
2023/03/01 05:33:45;;;;;;;93.43;38.10;;;;;;;-3.02;100.00;102041.57;5096208;55;1145248;-68
2023/03/01 05:38:51;;;;;;;97.97;36.23;;;;;;;-3.14;100.00;102042.41;5209781;54;1142982;-66
2023/03/01 05:43:57;;;;;;;98.47;36.83;;;;;;;-3.27;100.00;102035.47;5203302;55;1142981;-68
2023/03/01 05:49:04;;;;;;;91.50;34.20;;;;;;;-3.28;100.00;102035.91;5103532;55;1143026;-71
2023/03/01 05:54:11;;;;;;;96.60;36.53;;;;;;;-3.26;100.00;102034.19;5124444;55;1142844;-67
2023/03/01 05:59:17;;;;;;;90.33;37.77;;;;;;;-3.26;100.00;102035.91;5111986;55;1143020;-69
2023/03/01 06:04:23;;;;;;;94.13;36.33;;;;;;;-3.22;100.00;102032.48;5085947;56;1142886;-68
2023/03/01 06:09:30;;;;;;;99.50;36.93;;;;;;;-3.16;100.00;102032.48;5079691;56;1143046;-69
2023/03/01 06:14:36;;;;;;;100.12;37.80;;;;;;;-3.17;100.00;102043.69;5066008;56;1143185;-70
2023/03/01 06:19:42;;;;;;;91.73;36.60;;;;;;;-3.10;100.00;102051.92;5125476;55;1145208;-69
2023/03/01 06:24:47;;;;;;;88.63;35.40;;;;;;;-2.92;100.00;102054.56;5224104;55;1142820;-65
2023/03/01 06:29:53;;;;;;;82.13;33.70;;;;;;;-2.87;100.00;102058.00;5134470;55;1142781;-67
2023/03/01 06:34:59;;;;;;;85.80;32.05;;;;;;;-2.86;100.00;102052.39;5112092;55;1143017;-69
2023/03/01 06:40:08;;;;;;;85.05;34.30;;;;;;;-2.86;100.00;102052.39;5133825;55;1142896;-70
2023/03/01 06:45:15;;;;;;;82.83;34.00;;;;;;;-2.77;100.00;102057.61;5114849;56;1142952;-65
2023/03/01 06:50:21;;;;;;;79.42;33.00;;;;;;;-2.61;100.00;102055.91;5116422;55;1142997;-70
2023/03/01 06:55:27;;;;;;;84.43;38.43;;;;;;;-2.44;100.00;102055.45;5136888;56;1142897;-66
2023/03/01 07:00:33;;;;;;;86.20;35.13;;;;;;;-2.20;100.00;102061.09;5124004;55;1142861;-68
2023/03/01 07:05:44;;;;;;;83.57;33.00;;;;;;;-2.00;100.00;102054.16;5117117;56;1142994;-67
2023/03/01 07:10:51;;;;;;;77.27;32.37;;;;;;;-1.80;100.00;102058.86;5096494;56;1261637;-67
2023/03/01 07:15:57;;;;;;;82.90;32.66;;;;;;;-1.67;100.00;102057.53;5033258;56;1142937;-70
2023/03/01 07:21:16;;;;;;;64.70;24.35;;;;;;;-1.53;100.00;102059.20;5039821;56;1142969;-68
2023/03/01 07:26:21;;;;;;;74.37;32.33;;;;;;;-1.30;100.00;102055.68;5038113;56;1142917;-72
2023/03/01 07:31:30;;;;;;;129.77;56.07;;;;;;;-1.17;100.00;102061.23;5075059;56;1142952;-73
2023/03/01 07:36:36;;;;;;;72.33;31.57;;;;;;;-0.93;100.00;102066.33;5079353;56;1145043;-73
2023/03/01 07:41:42;;;;;;;68.77;29.10;;;;;;;-0.73;100.00;102070.94;5033098;56;1142857;-73
2023/03/01 07:46:48;;;;;;;82.67;35.00;;;;;;;-0.55;100.00;102063.47;5073921;55;1142947;-70
2023/03/01 07:51:55;;;;;;;67.70;29.77;;;;;;;-0.31;100.00;102066.77;5192649;55;1143154;-70
2023/03/01 07:57:03;;;;;;;63.07;28.17;;;;;;;0.04;100.00;102056.90;5138019;55;1143035;-68
2023/03/01 08:02:11;;;;;;;60.93;25.80;;;;;;;0.31;100.00;102052.70;5216400;55;1140734;-71
2023/03/01 08:07:17;;;;;;;76.70;29.43;;;;;;;0.50;100.00;102048.60;5192403;55;1141019;-70
2023/03/01 08:12:23;;;;;;;71.20;31.20;;;;;;;0.66;100.00;102034.52;5197590;55;1140885;-68
2023/03/01 08:17:29;;;;;;;62.67;25.87;;;;;;;0.81;100.00;102027.81;5218147;55;1140926;-71
2023/03/01 08:22:35;;;;;;;54.53;22.73;;;;;;;1.01;100.00;102028.41;5060808;56;1141118;-69
2023/03/01 08:27:40;;;;;;;50.87;22.27;;;;;;;1.17;100.00;102017.33;5084586;55;1140849;-71
2023/03/01 08:32:47;;;;;;;53.40;24.27;;;;;;;1.29;100.00;102015.84;5134535;55;1140695;-67
2023/03/01 08:37:54;;;;;;;52.33;22.97;;;;;;;1.54;100.00;102008.91;5079675;55;1140703;-68
2023/03/01 08:43:00;;;;;;;44.45;18.67;;;;;;;1.80;100.00;102012.41;5084093;56;1140839;-69
2023/03/01 08:48:05;;;;;;;23.67;10.60;;;;;;;2.07;100.00;102006.23;5090338;56;1140830;-72
2023/03/01 08:53:11;;;;;;;13.37;7.10;;;;;;;2.28;100.00;102001.06;4931227;57;1141274;-70
2023/03/01 08:58:17;;;;;;;16.77;7.73;;;;;;;2.55;100.00;102007.91;4968987;57;1138663;-77
2023/03/01 09:03:24;;;;;;;18.27;8.30;;;;;;;2.64;100.00;102002.05;4882856;58;1138892;-75
2023/03/01 09:08:30;;;;;;;20.25;8.48;;;;;;;2.81;100.00;101999.94;4933805;57;1138769;-75
2023/03/01 09:13:36;;;;;;;19.90;7.57;;;;;;;2.96;100.00;101992.64;4961903;57;1138718;-79
2023/03/01 09:18:43;;;;;;;23.73;9.57;;;;;;;3.13;100.00;101992.67;4949943;57;1138691;-84
2023/03/01 09:23:50;;;;;;;19.63;8.47;;;;;;;3.27;98.28;101991.48;4912884;58;1138775;-83
2023/03/01 09:28:57;;;;;;;20.00;8.07;;;;;;;3.40;95.73;101993.77;4957877;58;1136694;-77
2023/03/01 09:34:03;;;;;;;18.20;8.88;;;;;;;3.40;95.73;101993.77;4959070;57;1136626;-75
2023/03/01 09:39:09;;;;;;;20.70;8.80;;;;;;;3.53;93.62;101991.25;4982647;58;1136633;-81
2023/03/01 09:44:34;;;;;;;17.07;9.03;;;;;;;3.70;95.49;101996.51;5032871;57;1136685;-75
2023/03/01 09:49:42;;;;;;;17.27;8.80;;;;;;;3.85;92.98;102002.21;4877468;58;1136759;-76
2023/03/01 09:54:50;;;;;;;20.80;9.47;;;;;;;3.92;92.40;101987.66;5047949;56;1136683;-83
2023/03/01 10:00:15;;;;;;;23.80;11.40;;;;;;;3.91;91.32;101980.71;4894731;58;1136590;-77
2023/03/01 10:05:52;;;;;;;24.90;9.47;;;;;;;3.97;94.51;101980.11;5012993;57;1138951;-80
2023/03/01 10:10:59;;;;;;;21.17;9.03;;;;;;;4.11;92.47;101979.73;4932680;58;1136763;-81
2023/03/01 10:16:24;;;;;;;22.25;10.00;;;;;;;4.25;90.95;101988.06;4951988;58;1136672;-82
2023/03/01 10:21:31;;;;;;;18.63;9.37;;;;;;;4.40;91.01;101986.77;5081716;56;1138798;-84
2023/03/01 10:26:53;;;;;;;25.53;9.07;;;;;;;4.49;89.50;101987.35;5046579;56;1136586;-75
2023/03/01 10:31:59;;;;;;;22.00;9.05;;;;;;;4.64;91.22;101982.11;4972335;57;1137537;-81
2023/03/01 10:37:24;;;;;;;11.78;6.80;;;;;;;4.89;90.68;101979.14;5036818;57;1136617;-77
2023/03/01 10:42:38;;;;;;;14.83;6.27;;;;;;;5.08;89.85;101976.82;5007130;57;1136714;-81
2023/03/01 10:47:44;;;;;;;13.57;6.57;;;;;;;5.26;89.84;101965.75;4966776;57;1136759;-79
2023/03/01 10:53:05;;;;;;;10.70;5.60;;;;;;;5.29;87.72;101960.41;4891086;58;1136898;-82
2023/03/01 10:58:23;;;;;;;8.70;5.33;;;;;;;5.45;90.11;101942.39;4873115;58;1136602;-85
2023/03/01 11:03:38;;;;;;;13.80;7.67;;;;;;;5.60;88.88;101931.83;4873251;58;1134566;-82
2023/03/01 11:08:46;;;;;;;9.93;5.73;;;;;;;5.62;88.22;101930.02;4873682;58;1136753;-84
2023/03/01 11:14:19;;;;;;;13.03;6.07;;;;;;;5.64;90.28;101929.52;4965133;58;1134745;-85
2023/03/01 11:19:25;;;;;;;11.57;6.23;;;;;;;5.76;91.98;101919.03;5005734;57;1136661;-82
2023/03/01 11:24:41;;;;;;;10.63;6.23;;;;;;;5.79;91.65;101911.05;4951886;57;1136827;-79
2023/03/01 11:29:54;;;;;;;17.83;6.47;;;;;;;5.87;93.13;101906.37;4900098;58;1136782;-83
2023/03/01 11:35:02;;;;;;;;;;;;;;;5.99;94.33;101913.83;4986721;56;1136656;-79
2023/03/01 11:40:28;;;;;;;11.97;5.83;;;;;;;6.18;93.68;101912.70;5039638;56;972070;-80
2023/03/01 11:45:41;;;;;;;8.80;4.90;;;;;;;6.30;95.97;101902.59;4985466;56;1134681;-79
2023/03/01 11:50:49;;;;;;;9.88;4.83;;;;;;;6.55;94.77;101894.64;5117617;55;1134576;-79
2023/03/01 11:56:27;;;;;;;9.10;4.72;;;;;;;6.65;94.61;101885.92;5111433;56;1134527;-77
2023/03/01 12:01:52;;;;;;;17.47;5.67;;;;;;;6.78;94.04;101867.88;5096516;56;1134853;-81
2023/03/01 12:07:09;;;;;;;8.80;5.10;;;;;;;6.90;94.31;101858.17;4923866;58;1201837;-81
2023/03/01 12:12:51;;;;;;;7.83;3.70;;;;;;;7.09;95.19;101853.87;4945358;58;1134866;-81
2023/03/01 12:18:22;;;;;;;6.33;4.30;;;;;;;7.27;94.15;101850.94;4968856;57;1143195;-81
2023/03/01 12:23:44;;;;;;;8.10;5.07;;;;;;;7.46;92.81;101841.33;5020756;56;1134578;-82
2023/03/01 12:29:10;;;;;;;9.47;5.17;;;;;;;7.56;93.56;101836.51;4952696;56;1134553;-80
2023/03/01 12:34:40;;;;;;;10.73;4.67;;;;;;;7.80;92.86;101839.36;5137464;56;1134776;-90
2023/03/01 12:40:17;;;;;;;7.53;4.37;;;;;;;7.98;91.75;101838.53;5220570;55;1136670;-81
2023/03/01 12:45:57;;;;;;;11.13;5.90;;;;;;;8.17;91.26;101833.27;5079184;55;1134544;-84
2023/03/01 12:51:10;;;;;;;5.78;4.33;;;;;;;8.28;91.32;101823.53;4969714;57;1136684;-79
2023/03/01 12:56:23;;;;;;;7.50;4.00;;;;;;;8.43;89.94;101813.61;5033601;57;1134847;-77
2023/03/01 13:01:52;;;;;;;6.10;4.40;;;;;;;8.44;86.37;101812.22;5092522;56;1134657;-79
2023/03/01 13:07:30;;;;;;;9.30;5.60;;;;;;;8.38;87.00;101800.67;5112008;56;1134800;-83
2023/03/01 13:12:53;;;;;;;9.80;5.00;;;;;;;8.45;87.23;101802.07;4999777;56;1134685;-84
2023/03/01 13:18:02;;;;;;;6.47;3.90;;;;;;;8.59;87.00;101803.17;5042946;56;1134793;-80
2023/03/01 13:23:24;;;;;;;7.70;3.75;;;;;;;8.77;84.43;101788.63;5140739;56;1134725;-83
2023/03/01 13:28:49;;;;;;;6.30;4.40;;;;;;;8.80;82.42;101788.95;5060877;56;1134696;-86
2023/03/01 13:33:58;;;;;;;10.05;5.85;;;;;;;8.82;86.36;101797.64;5072804;56;1134863;-86
2023/03/01 13:39:26;;;;;;;10.77;5.70;;;;;;;9.09;85.69;101794.06;5032287;56;1136835;-82
2023/03/01 13:44:43;;;;;;;6.23;4.70;;;;;;;9.21;84.29;101797.39;5013214;56;1136900;-88
2023/03/01 13:50:03;;;;;;;14.87;7.20;;;;;;;9.37;80.72;101798.30;5012927;56;1134687;-85
2023/03/01 13:55:23;;;;;;;9.03;5.17;;;;;;;9.42;81.69;101786.19;5055628;55;1136858;-84
2023/03/01 14:00:39;;;;;;;7.03;4.93;;;;;;;9.37;79.85;101780.29;5204080;55;1135124;-84
2023/03/01 14:06:18;;;;;;;10.43;5.27;;;;;;;9.41;81.84;101781.84;5205429;55;1134708;-82
2023/03/01 14:11:36;;;;;;;8.28;4.87;;;;;;;9.47;81.37;101774.93;5122670;56;1136696;-87
2023/03/01 14:16:57;;;;;;;11.07;6.67;;;;;;;9.55;78.06;101774.51;5152449;55;1136756;-79
2023/03/01 14:22:31;;;;;;;11.33;6.78;;;;;;;9.56;77.03;101777.53;5208721;55;1138765;-81
2023/03/01 14:27:46;;;;;;;15.40;8.77;;;;;;;9.64;76.81;101772.22;5216450;55;1138740;-85
2023/03/01 14:32:58;;;;;;;21.47;10.37;;;;;;;9.67;79.11;101764.59;5133217;55;1138747;-84
2023/03/01 14:38:04;;;;;;;18.87;10.68;;;;;;;9.61;79.64;101750.42;5149217;55;1140970;-78
2023/03/01 14:43:17;;;;;;;14.40;9.03;;;;;;;9.61;79.84;101746.46;5131949;55;1141038;-83
2023/03/01 14:48:22;;;;;;;14.70;9.30;;;;;;;9.51;79.26;101746.94;5192776;55;1138882;-81
2023/03/01 14:53:31;;;;;;;21.70;9.88;;;;;;;9.48;80.28;101746.23;5204941;55;1138741;-81
2023/03/01 14:58:36;;;;;;;23.57;12.73;;;;;;;9.45;81.24;101737.19;5219546;55;1136629;-82
2023/03/01 15:03:49;;;;;;;16.00;10.17;;;;;;;9.63;83.08;101744.56;5198312;55;1140876;-83
2023/03/01 15:09:02;;;;;;;13.27;7.90;;;;;;;9.72;80.78;101746.25;5153859;55;1141037;-88
2023/03/01 15:14:06;;;;;;;18.97;10.73;;;;;;;9.49;79.91;101739.56;5218183;55;1138783;-83
2023/03/01 15:19:16;;;;;;;19.65;10.30;;;;;;;9.33;81.44;101749.23;5140630;55;1138818;-81
2023/03/01 15:24:29;;;;;;;21.02;9.80;;;;;;;9.26;82.27;101743.90;5204130;55;1138805;-82
2023/03/01 15:29:40;;;;;;;16.80;9.63;;;;;;;10.11;82.99;101727.79;5209403;55;1138853;-80
2023/03/01 15:34:43;;;;;;;19.20;10.40;;;;;;;11.06;78.65;101723.13;5194314;55;1140807;-82
2023/03/01 15:39:58;;;;;;;14.83;9.47;;;;;;;10.79;76.10;101732.27;5193080;55;1142986;-82
2023/03/01 15:45:27;;;;;;;20.90;9.87;;;;;;;10.03;78.22;101728.23;5067734;55;1138773;-79
2023/03/01 15:50:32;;;;;;;18.82;11.63;;;;;;;9.58;80.32;101735.59;5044610;57;1138911;-78
2023/03/01 15:55:38;;;;;;;28.73;12.20;;;;;;;9.25;81.49;101735.59;5065307;57;1138707;-79
2023/03/01 16:00:46;;;;;;;21.23;11.03;;;;;;;9.29;83.53;101735.83;5071747;56;1138934;-80
2023/03/01 16:05:53;;;;;;;30.03;10.80;;;;;;;9.43;82.42;101718.78;5121471;55;1138914;-84
2023/03/01 16:10:59;;;;;;;59.73;32.67;;;;;;;9.02;82.56;101724.90;5132662;55;1138606;-76
2023/03/01 16:16:05;;;;;;;43.23;25.13;;;;;;;8.68;83.44;101715.71;5146142;55;1138782;-83
2023/03/01 16:21:15;;;;;;;27.07;11.75;;;;;;;8.40;83.81;101718.38;5157304;55;1138769;-79
2023/03/01 16:26:21;;;;;;;53.33;25.02;;;;;;;8.16;83.88;101717.39;5177820;55;1138829;-85
2023/03/01 16:31:28;;;;;;;105.73;45.30;;;;;;;7.96;84.31;101711.75;5230000;55;1138744;-86
2023/03/01 16:36:34;;;;;;;213.97;111.17;;;;;;;7.82;84.87;101702.34;5209536;55;1140910;-84
2023/03/01 16:41:40;;;;;;;219.43;102.40;;;;;;;7.70;85.17;101707.72;5209082;55;1142958;-84
2023/03/01 16:46:46;;;;;;;164.10;68.13;;;;;;;7.49;85.29;101712.65;5145003;55;1142873;-82
2023/03/01 16:51:54;;;;;;;384.37;124.55;;;;;;;7.28;85.42;101709.23;5101313;56;1140876;-79
2023/03/01 16:57:00;;;;;;;136.07;60.93;;;;;;;7.09;85.53;101704.39;5099189;56;1261241;-83
2023/03/01 17:02:09;;;;;;;222.73;90.93;;;;;;;6.95;85.94;101707.63;5131501;56;1141057;-83
2023/03/01 17:07:14;;;;;;;333.10;130.27;;;;;;;6.85;86.32;101708.95;5129281;55;1226178;-85
2023/03/01 17:12:20;;;;;;;271.57;108.03;;;;;;;6.77;86.63;101712.36;5131001;56;1142932;-80
2023/03/01 17:17:26;;;;;;;283.20;117.05;;;;;;;6.80;87.22;101710.92;5077383;56;1143024;-84
2023/03/01 17:22:32;;;;;;;270.53;102.23;;;;;;;6.77;86.97;101716.30;5091226;55;1142826;-76
2023/03/01 17:27:39;;;;;;;212.60;93.27;;;;;;;6.67;87.34;101711.91;5092727;55;1142747;-80
2023/03/01 17:32:45;;;;;;;216.37;93.10;;;;;;;6.47;86.71;101714.05;5129560;56;1140879;-82
2023/03/01 17:37:51;;;;;;;153.60;61.07;;;;;;;6.20;86.61;101725.23;5186236;55;1140835;-75
2023/03/01 17:42:57;;;;;;;159.33;62.70;;;;;;;5.97;87.17;101727.90;5218223;55;1141081;-80
2023/03/01 17:48:03;;;;;;;135.60;56.43;;;;;;;5.84;87.74;101730.57;5178785;55;1140885;-82
2023/03/01 17:53:10;;;;;;;135.75;55.98;;;;;;;5.70;88.17;101739.44;5079086;56;1140836;-81
2023/03/01 17:58:21;;;;;;;143.43;59.10;;;;;;;5.58;88.85;101742.93;5045187;56;1140706;-84
2023/03/01 18:03:24;;;;;;;137.60;53.20;;;;;;;5.47;88.99;101733.30;5100722;56;1142317;-82
2023/03/01 18:08:30;;;;;;;155.07;68.43;;;;;;;5.42;89.65;101742.23;5114587;56;1141001;-82
2023/03/01 18:13:38;;;;;;;134.77;55.97;;;;;;;5.39;89.71;101746.28;5129905;55;1140825;-77
2023/03/01 18:18:47;;;;;;;122.83;46.27;;;;;;;5.25;89.27;101741.53;5099170;56;1140792;-80
2023/03/01 18:23:54;;;;;;;129.63;55.20;;;;;;;5.23;89.80;101739.42;5052354;56;1140801;-79
2023/03/01 18:29:02;;;;;;;137.52;57.05;;;;;;;5.13;89.75;101732.34;5028205;56;1140852;-75
2023/03/01 18:34:09;;;;;;;164.90;71.40;;;;;;;5.07;89.78;101739.11;5100312;55;1140733;-82
2023/03/01 18:39:16;;;;;;;122.94;46.78;;;;;;;5.00;90.10;101736.31;5133506;56;1141035;-77
2023/03/01 18:44:22;;;;;;;115.37;38.37;;;;;;;4.93;90.14;101734.34;5108565;56;1140796;-75
2023/03/01 18:49:28;;;;;;;102.00;37.43;;;;;;;4.86;90.31;101730.25;5086117;56;1141223;-83
2023/03/01 18:54:34;;;;;;;87.42;31.25;;;;;;;4.67;89.68;101734.40;5081530;55;1140988;-79
2023/03/01 18:59:40;;;;;;;85.50;32.13;;;;;;;4.49;89.65;101741.55;5102660;55;1138876;-73
2023/03/01 19:04:46;;;;;;;96.80;38.37;;;;;;;4.32;89.66;101742.09;5106609;55;1138664;-85
2023/03/01 19:09:52;;;;;;;158.97;64.50;;;;;;;4.11;89.90;101748.89;5111780;55;1138838;-82
2023/03/01 19:14:58;;;;;;;104.97;48.50;;;;;;;3.96;90.52;101755.05;5099406;55;1140772;-74
2023/03/01 19:20:05;;;;;;;103.85;47.23;;;;;;;3.96;91.87;101758.98;5149056;55;1140928;-77
2023/03/01 19:25:11;;;;;;;242.23;79.77;;;;;;;4.00;92.32;101761.88;5184092;55;1140847;-84
2023/03/01 19:30:17;;;;;;;161.00;58.63;;;;;;;3.80;92.22;101759.44;5092951;55;1141102;-81
2023/03/01 19:35:23;;;;;;;227.53;80.57;;;;;;;3.63;92.59;101759.08;5137981;55;1140880;-78
2023/03/01 19:40:29;;;;;;;995.90;415.03;;;;;;;3.68;93.92;101758.92;5078304;56;1140777;-87
2023/03/01 19:45:35;;;;;;;1165.10;471.80;;;;;;;3.73;94.40;101757.89;5128557;55;1143014;-78
2023/03/01 19:50:45;;;;;;;1068.08;444.28;;;;;;;3.75;94.78;101761.77;5196777;55;1145011;-75
2023/03/01 19:55:59;;;;;;;626.00;308.60;;;;;;;3.77;94.63;101752.98;5117359;56;1145125;-84
2023/03/01 20:01:07;;;;;;;801.92;338.60;;;;;;;3.73;94.54;101763.13;5091820;56;1142871;-76
2023/03/01 20:06:18;;;;;;;649.17;261.07;;;;;;;3.74;94.89;101758.75;4971092;57;1142994;-79
2023/03/01 20:11:24;;;;;;;669.33;260.47;;;;;;;3.48;93.92;101757.76;5027642;57;1142918;-81
2023/03/01 20:16:30;;;;;;;685.33;276.93;;;;;;;3.39;94.36;101763.67;5036777;57;1143036;-77
2023/03/01 20:21:35;;;;;;;466.47;172.57;;;;;;;3.44;95.00;101758.73;5061089;57;1143170;-82
2023/03/01 20:26:41;;;;;;;203.83;75.78;;;;;;;3.51;95.31;101762.05;5126008;56;1143059;-82
2023/03/01 20:31:47;;;;;;;154.20;56.30;;;;;;;3.34;94.25;101765.59;5089859;56;1141084;-82
2023/03/01 20:36:53;;;;;;;138.50;52.93;;;;;;;3.02;94.05;101762.09;5044932;56;1140826;-79
2023/03/01 20:41:59;;;;;;;168.77;60.63;;;;;;;2.80;94.51;101755.69;4999274;57;1140812;-78
2023/03/01 20:47:05;;;;;;;148.03;55.30;;;;;;;2.82;95.91;101761.73;4986584;57;1260510;-86
2023/03/01 20:52:11;;;;;;;262.35;94.52;;;;;;;2.88;96.35;101758.98;5033887;57;1141003;-88
2023/03/01 20:57:16;;;;;;;233.53;95.90;;;;;;;2.94;96.40;101754.02;5032743;57;1140843;-84
2023/03/01 21:02:22;;;;;;;240.07;96.97;;;;;;;2.92;95.91;101760.59;5008400;57;1140899;-81
2023/03/01 21:07:28;;;;;;;213.67;83.90;;;;;;;2.91;95.69;101761.94;4989787;57;1140968;-81
2023/03/01 21:12:33;;;;;;;200.60;77.73;;;;;;;2.82;95.50;101768.27;5035104;56;1140941;-75
2023/03/01 21:17:39;;;;;;;201.07;72.40;;;;;;;2.78;96.04;101770.09;4905724;57;1141170;-84
2023/03/01 21:22:45;;;;;;;218.03;80.10;;;;;;;2.78;96.55;101766.63;5053401;57;1140828;-82
2023/03/01 21:27:52;;;;;;;189.43;74.03;;;;;;;2.75;96.42;101767.55;5033364;57;1140831;-79
2023/03/01 21:32:57;;;;;;;188.13;75.50;;;;;;;2.73;96.15;101771.12;5033316;57;1140877;-86
2023/03/01 21:38:03;;;;;;;174.37;73.63;;;;;;;2.68;96.09;101767.31;4976005;57;1140992;-80
2023/03/01 21:43:09;;;;;;;179.57;70.90;;;;;;;2.55;95.60;101772.88;4989686;57;1140804;-86
2023/03/01 21:48:15;;;;;;;178.50;73.87;;;;;;;2.45;96.30;101765.70;5029493;57;1140750;-83
2023/03/01 21:53:20;;;;;;;192.13;73.55;;;;;;;2.38;96.55;101761.54;5014900;57;1140950;-84
2023/03/01 21:58:27;;;;;;;247.90;90.00;;;;;;;2.32;96.72;101762.53;5040754;57;1140906;-84
2023/03/01 22:03:33;;;;;;;267.63;94.23;;;;;;;2.26;96.41;101758.78;5013882;57;1140922;-79
2023/03/01 22:08:39;;;;;;;287.23;105.23;;;;;;;2.14;96.08;101754.30;5043730;56;1140802;-80
2023/03/01 22:13:48;;;;;;;269.53;93.10;;;;;;;1.96;95.82;101762.09;5030722;57;1142885;-75
2023/03/01 22:18:53;;;;;;;259.63;91.57;;;;;;;1.95;97.45;101754.70;4996066;57;1140860;-82
2023/03/01 22:24:00;;;;;;;257.97;90.47;;;;;;;1.99;97.91;101756.33;5007371;57;1140897;-82
2023/03/01 22:29:14;;;;;;;198.13;72.13;;;;;;;2.01;97.72;101755.85;5102907;57;1140789;-86
2023/03/01 22:34:19;;;;;;;;;;;;;;;1.95;97.30;101759.92;5032099;57;1140992;-80
2023/03/01 22:39:25;;;;;;;203.65;80.45;;;;;;;1.93;97.49;101763.01;5043411;57;972042;-78
2023/03/01 22:44:31;;;;;;;193.77;74.40;;;;;;;1.92;97.61;101751.30;5048969;57;1138732;-86
2023/03/01 22:49:37;;;;;;;208.20;77.47;;;;;;;1.93;97.91;101753.88;5023921;57;1140958;-75
2023/03/01 22:54:43;;;;;;;203.37;74.93;;;;;;;1.89;97.81;101755.27;5028909;56;1140846;-80
2023/03/01 22:59:49;;;;;;;193.07;77.57;;;;;;;1.86;97.88;101754.03;4967079;57;1140844;-87